sensor_id;sensor_type;location;lat;lon;timestamp;temperature;humidity
23120;DHT22;11729;50.836;4.330;2022-11-20T00:01:08;6.10;99.90
23120;DHT22;11729;50.836;4.330;2022-11-20T00:03:34;6.00;99.90
23120;DHT22;11729;50.836;4.330;2022-11-20T00:06:02;5.80;99.90
23120;DHT22;11729;50.836;4.330;2022-11-20T00:08:29;5.70;99.90
23120;DHT22;11729;50.836;4.330;2022-11-20T00:10:55;6.00;99.90
23120;DHT22;11729;50.836;4.330;2022-11-20T00:13:20;6.20;99.90
23120;DHT22;11729;50.836;4.330;2022-11-20T00:15:46;6.10;99.90
23120;DHT22;11729;50.836;4.330;2022-11-20T00:18:11;6.00;99.90
23120;DHT22;11729;50.836;4.330;2022-11-20T00:20:37;5.80;99.90
23120;DHT22;11729;50.836;4.330;2022-11-20T00:23:02;5.80;99.90
23120;DHT22;11729;50.836;4.330;2022-11-20T00:25:28;5.80;99.90
23120;DHT22;11729;50.836;4.330;2022-11-20T00:27:53;5.60;99.90
23120;DHT22;11729;50.836;4.330;2022-11-20T00:30:19;5.80;99.90
23120;DHT22;11729;50.836;4.330;2022-11-20T00:32:44;6.10;99.90
23120;DHT22;11729;50.836;4.330;2022-11-20T00:35:10;5.90;99.90
23120;DHT22;11729;50.836;4.330;2022-11-20T00:37:36;5.90;99.90
23120;DHT22;11729;50.836;4.330;2022-11-20T00:40:01;5.80;99.90
23120;DHT22;11729;50.836;4.330;2022-11-20T00:42:28;5.90;99.90
23120;DHT22;11729;50.836;4.330;2022-11-20T00:44:54;5.90;99.90
23120;DHT22;11729;50.836;4.330;2022-11-20T00:47:19;6.00;99.90
23120;DHT22;11729;50.836;4.330;2022-11-20T00:49:45;5.80;99.90
23120;DHT22;11729;50.836;4.330;2022-11-20T00:52:11;5.60;99.90
23120;DHT22;11729;50.836;4.330;2022-11-20T00:54:38;5.50;99.90
23120;DHT22;11729;50.836;4.330;2022-11-20T00:57:05;5.60;99.90
23120;DHT22;11729;50.836;4.330;2022-11-20T00:59:31;5.80;99.90
23120;DHT22;11729;50.836;4.330;2022-11-20T01:01:56;6.00;99.90
23120;DHT22;11729;50.836;4.330;2022-11-20T01:04:22;5.80;99.90
23120;DHT22;11729;50.836;4.330;2022-11-20T01:06:47;5.80;99.90
23120;DHT22;11729;50.836;4.330;2022-11-20T01:09:14;5.70;99.90
23120;DHT22;11729;50.836;4.330;2022-11-20T01:11:42;5.80;99.90
23120;DHT22;11729;50.836;4.330;2022-11-20T01:14:13;5.70;99.90
23120;DHT22;11729;50.836;4.330;2022-11-20T01:16:42;5.80;99.90
23120;DHT22;11729;50.836;4.330;2022-11-20T01:19:14;5.80;99.90
23120;DHT22;11729;50.836;4.330;2022-11-20T01:21:42;5.70;99.90
23120;DHT22;11729;50.836;4.330;2022-11-20T01:24:11;5.70;99.90
23120;DHT22;11729;50.836;4.330;2022-11-20T01:26:38;5.80;99.90
23120;DHT22;11729;50.836;4.330;2022-11-20T01:29:05;5.90;99.90
23120;DHT22;11729;50.836;4.330;2022-11-20T01:31:34;5.90;99.90
23120;DHT22;11729;50.836;4.330;2022-11-20T01:34:05;5.90;99.90
23120;DHT22;11729;50.836;4.330;2022-11-20T01:36:33;5.90;99.90
23120;DHT22;11729;50.836;4.330;2022-11-20T01:39:01;5.90;99.90
23120;DHT22;11729;50.836;4.330;2022-11-20T01:41:29;5.80;99.90
23120;DHT22;11729;50.836;4.330;2022-11-20T01:44:16;5.80;99.90
23120;DHT22;11729;50.836;4.330;2022-11-20T01:47:12;5.70;99.90
23120;DHT22;11729;50.836;4.330;2022-11-20T01:49:45;5.80;99.90
23120;DHT22;11729;50.836;4.330;2022-11-20T01:52:20;5.70;99.90
23120;DHT22;11729;50.836;4.330;2022-11-20T01:54:51;5.70;99.90
23120;DHT22;11729;50.836;4.330;2022-11-20T01:57:20;5.70;99.90
23120;DHT22;11729;50.836;4.330;2022-11-20T01:59:52;5.80;99.90
23120;DHT22;11729;50.836;4.330;2022-11-20T02:02:20;5.70;99.90
23120;DHT22;11729;50.836;4.330;2022-11-20T02:04:46;5.50;99.90
23120;DHT22;11729;50.836;4.330;2022-11-20T02:07:13;5.50;99.90
23120;DHT22;11729;50.836;4.330;2022-11-20T02:09:39;5.60;99.90
23120;DHT22;11729;50.836;4.330;2022-11-20T02:12:04;5.60;99.90
23120;DHT22;11729;50.836;4.330;2022-11-20T02:14:30;5.70;99.90
23120;DHT22;11729;50.836;4.330;2022-11-20T02:16:57;5.80;99.90
23120;DHT22;11729;50.836;4.330;2022-11-20T02:19:28;6.00;99.90
23120;DHT22;11729;50.836;4.330;2022-11-20T02:22:05;5.80;99.90
23120;DHT22;11729;50.836;4.330;2022-11-20T02:24:33;5.90;99.90
23120;DHT22;11729;50.836;4.330;2022-11-20T02:27:07;5.90;99.90
23120;DHT22;11729;50.836;4.330;2022-11-20T02:32:05;6.00;99.90
23120;DHT22;11729;50.836;4.330;2022-11-20T02:34:31;5.90;99.90
23120;DHT22;11729;50.836;4.330;2022-11-20T02:36:58;6.00;99.90
23120;DHT22;11729;50.836;4.330;2022-11-20T02:39:25;6.20;99.90
23120;DHT22;11729;50.836;4.330;2022-11-20T02:41:54;6.30;99.90
23120;DHT22;11729;50.836;4.330;2022-11-20T02:44:21;6.30;99.90
23120;DHT22;11729;50.836;4.330;2022-11-20T02:46:46;6.10;99.90
23120;DHT22;11729;50.836;4.330;2022-11-20T02:49:12;6.10;99.90
23120;DHT22;11729;50.836;4.330;2022-11-20T02:51:37;6.00;99.90
23120;DHT22;11729;50.836;4.330;2022-11-20T02:54:03;5.80;99.90
23120;DHT22;11729;50.836;4.330;2022-11-20T02:56:29;5.60;99.90
23120;DHT22;11729;50.836;4.330;2022-11-20T02:58:54;5.60;99.90
23120;DHT22;11729;50.836;4.330;2022-11-20T03:01:21;5.60;99.90
23120;DHT22;11729;50.836;4.330;2022-11-20T03:03:46;5.60;99.90
23120;DHT22;11729;50.836;4.330;2022-11-20T03:06:14;5.70;99.90
23120;DHT22;11729;50.836;4.330;2022-11-20T03:08:41;5.90;99.90
23120;DHT22;11729;50.836;4.330;2022-11-20T03:11:07;6.00;99.90
23120;DHT22;11729;50.836;4.330;2022-11-20T03:13:34;6.10;99.90
23120;DHT22;11729;50.836;4.330;2022-11-20T03:16:11;6.30;99.90
23120;DHT22;11729;50.836;4.330;2022-11-20T03:18:37;6.40;99.90
23120;DHT22;11729;50.836;4.330;2022-11-20T03:21:03;6.50;99.90
23120;DHT22;11729;50.836;4.330;2022-11-20T03:23:30;6.60;99.90
23120;DHT22;11729;50.836;4.330;2022-11-20T03:26:06;6.50;99.90
23120;DHT22;11729;50.836;4.330;2022-11-20T03:28:32;6.40;99.90
23120;DHT22;11729;50.836;4.330;2022-11-20T03:30:57;6.30;99.90
23120;DHT22;11729;50.836;4.330;2022-11-20T03:33:23;6.20;99.90
23120;DHT22;11729;50.836;4.330;2022-11-20T03:35:49;6.20;99.90
23120;DHT22;11729;50.836;4.330;2022-11-20T03:38:14;6.20;99.90
23120;DHT22;11729;50.836;4.330;2022-11-20T03:40:40;6.20;99.90
23120;DHT22;11729;50.836;4.330;2022-11-20T03:43:06;6.30;99.90
23120;DHT22;11729;50.836;4.330;2022-11-20T03:45:32;6.40;99.90
23120;DHT22;11729;50.836;4.330;2022-11-20T03:47:57;6.50;99.90
23120;DHT22;11729;50.836;4.330;2022-11-20T03:50:23;6.30;99.90
23120;DHT22;11729;50.836;4.330;2022-11-20T03:52:49;6.50;99.90
23120;DHT22;11729;50.836;4.330;2022-11-20T03:55:15;6.30;99.90
23120;DHT22;11729;50.836;4.330;2022-11-20T03:57:41;6.30;99.90
23120;DHT22;11729;50.836;4.330;2022-11-20T04:00:06;6.30;99.90
23120;DHT22;11729;50.836;4.330;2022-11-20T04:02:32;6.30;99.90
23120;DHT22;11729;50.836;4.330;2022-11-20T04:04:58;6.40;99.90
23120;DHT22;11729;50.836;4.330;2022-11-20T04:07:23;6.40;99.90
23120;DHT22;11729;50.836;4.330;2022-11-20T04:09:49;6.40;99.90
23120;DHT22;11729;50.836;4.330;2022-11-20T04:12:14;6.60;99.90
23120;DHT22;11729;50.836;4.330;2022-11-20T04:14:40;6.60;99.90
23120;DHT22;11729;50.836;4.330;2022-11-20T04:17:05;6.50;99.90
23120;DHT22;11729;50.836;4.330;2022-11-20T04:19:31;6.60;99.90
23120;DHT22;11729;50.836;4.330;2022-11-20T04:21:56;6.70;99.90
23120;DHT22;11729;50.836;4.330;2022-11-20T04:24:22;6.60;99.90
23120;DHT22;11729;50.836;4.330;2022-11-20T04:26:47;6.60;99.90
23120;DHT22;11729;50.836;4.330;2022-11-20T04:29:13;6.50;99.90
23120;DHT22;11729;50.836;4.330;2022-11-20T04:31:39;6.60;99.90
23120;DHT22;11729;50.836;4.330;2022-11-20T04:34:06;6.70;99.90
23120;DHT22;11729;50.836;4.330;2022-11-20T04:36:32;6.50;99.90
23120;DHT22;11729;50.836;4.330;2022-11-20T04:39:00;6.40;99.90
23120;DHT22;11729;50.836;4.330;2022-11-20T04:41:32;6.30;99.90
23120;DHT22;11729;50.836;4.330;2022-11-20T04:43:59;6.30;99.90
23120;DHT22;11729;50.836;4.330;2022-11-20T04:46:28;6.40;99.90
23120;DHT22;11729;50.836;4.330;2022-11-20T04:48:54;6.50;99.90
23120;DHT22;11729;50.836;4.330;2022-11-20T04:51:20;6.60;99.90
23120;DHT22;11729;50.836;4.330;2022-11-20T04:53:46;6.70;99.90
23120;DHT22;11729;50.836;4.330;2022-11-20T04:56:12;6.60;99.90
23120;DHT22;11729;50.836;4.330;2022-11-20T04:58:39;6.50;99.90
23120;DHT22;11729;50.836;4.330;2022-11-20T05:01:07;6.60;99.90
23120;DHT22;11729;50.836;4.330;2022-11-20T05:03:34;6.60;99.90
23120;DHT22;11729;50.836;4.330;2022-11-20T05:06:02;6.50;99.90
23120;DHT22;11729;50.836;4.330;2022-11-20T05:08:29;6.50;99.90
23120;DHT22;11729;50.836;4.330;2022-11-20T05:11:13;6.60;99.90
23120;DHT22;11729;50.836;4.330;2022-11-20T05:13:39;6.50;99.90
23120;DHT22;11729;50.836;4.330;2022-11-20T05:16:08;6.40;99.90
23120;DHT22;11729;50.836;4.330;2022-11-20T05:18:35;6.40;99.90
23120;DHT22;11729;50.836;4.330;2022-11-20T05:21:01;6.50;99.90
23120;DHT22;11729;50.836;4.330;2022-11-20T05:23:28;6.40;99.90
23120;DHT22;11729;50.836;4.330;2022-11-20T05:25:55;6.50;99.90
23120;DHT22;11729;50.836;4.330;2022-11-20T05:28:21;6.60;99.90
23120;DHT22;11729;50.836;4.330;2022-11-20T05:30:47;6.70;99.90
23120;DHT22;11729;50.836;4.330;2022-11-20T05:33:13;6.70;99.90
23120;DHT22;11729;50.836;4.330;2022-11-20T05:35:39;6.70;99.90
23120;DHT22;11729;50.836;4.330;2022-11-20T05:38:04;6.70;99.90
23120;DHT22;11729;50.836;4.330;2022-11-20T05:40:30;6.60;99.90
23120;DHT22;11729;50.836;4.330;2022-11-20T05:42:55;6.60;99.90
23120;DHT22;11729;50.836;4.330;2022-11-20T05:45:21;6.60;99.90
23120;DHT22;11729;50.836;4.330;2022-11-20T05:47:47;6.70;99.90
23120;DHT22;11729;50.836;4.330;2022-11-20T05:50:13;6.70;99.90
23120;DHT22;11729;50.836;4.330;2022-11-20T05:52:39;6.70;99.90
23120;DHT22;11729;50.836;4.330;2022-11-20T05:55:05;6.60;99.90
23120;DHT22;11729;50.836;4.330;2022-11-20T05:57:32;6.50;99.90
23120;DHT22;11729;50.836;4.330;2022-11-20T06:00:01;6.60;99.90
23120;DHT22;11729;50.836;4.330;2022-11-20T06:02:26;6.50;99.90
23120;DHT22;11729;50.836;4.330;2022-11-20T06:04:52;6.60;99.90
23120;DHT22;11729;50.836;4.330;2022-11-20T06:07:18;6.60;99.90
23120;DHT22;11729;50.836;4.330;2022-11-20T06:09:45;6.60;99.90
23120;DHT22;11729;50.836;4.330;2022-11-20T06:12:10;6.60;99.90
23120;DHT22;11729;50.836;4.330;2022-11-20T06:14:36;6.60;99.90
23120;DHT22;11729;50.836;4.330;2022-11-20T06:17:02;6.60;99.90
23120;DHT22;11729;50.836;4.330;2022-11-20T06:19:27;6.60;99.90
23120;DHT22;11729;50.836;4.330;2022-11-20T06:21:54;6.50;99.90
23120;DHT22;11729;50.836;4.330;2022-11-20T06:24:19;6.50;99.90
23120;DHT22;11729;50.836;4.330;2022-11-20T06:26:45;6.50;99.90
23120;DHT22;11729;50.836;4.330;2022-11-20T06:29:11;6.50;99.90
23120;DHT22;11729;50.836;4.330;2022-11-20T06:31:36;6.60;99.90
23120;DHT22;11729;50.836;4.330;2022-11-20T06:34:04;6.70;99.90
23120;DHT22;11729;50.836;4.330;2022-11-20T06:36:31;6.70;99.90
23120;DHT22;11729;50.836;4.330;2022-11-20T06:39:00;6.80;99.90
23120;DHT22;11729;50.836;4.330;2022-11-20T06:41:26;6.70;99.90
23120;DHT22;11729;50.836;4.330;2022-11-20T06:43:52;6.80;99.90
23120;DHT22;11729;50.836;4.330;2022-11-20T06:46:18;6.80;99.90
23120;DHT22;11729;50.836;4.330;2022-11-20T06:48:45;6.60;99.90
23120;DHT22;11729;50.836;4.330;2022-11-20T06:51:11;6.60;99.90
23120;DHT22;11729;50.836;4.330;2022-11-20T06:53:36;6.70;99.90
23120;DHT22;11729;50.836;4.330;2022-11-20T06:56:03;6.70;99.90
23120;DHT22;11729;50.836;4.330;2022-11-20T06:58:30;6.80;99.90
23120;DHT22;11729;50.836;4.330;2022-11-20T07:01:04;6.90;99.90
23120;DHT22;11729;50.836;4.330;2022-11-20T07:03:30;7.10;99.90
23120;DHT22;11729;50.836;4.330;2022-11-20T07:05:58;7.10;99.90
23120;DHT22;11729;50.836;4.330;2022-11-20T07:08:25;7.20;99.90
23120;DHT22;11729;50.836;4.330;2022-11-20T07:10:50;7.10;99.90
23120;DHT22;11729;50.836;4.330;2022-11-20T07:13:16;6.90;99.90
23120;DHT22;11729;50.836;4.330;2022-11-20T07:15:43;6.80;99.90
23120;DHT22;11729;50.836;4.330;2022-11-20T07:18:09;7.00;99.90
23120;DHT22;11729;50.836;4.330;2022-11-20T07:20:34;7.10;99.90
23120;DHT22;11729;50.836;4.330;2022-11-20T07:23:00;7.20;99.90
23120;DHT22;11729;50.836;4.330;2022-11-20T07:25:27;7.10;99.90
23120;DHT22;11729;50.836;4.330;2022-11-20T07:27:56;7.20;99.90
23120;DHT22;11729;50.836;4.330;2022-11-20T07:30:21;7.30;99.90
23120;DHT22;11729;50.836;4.330;2022-11-20T07:32:50;7.40;99.90
23120;DHT22;11729;50.836;4.330;2022-11-20T07:35:16;7.50;99.90
23120;DHT22;11729;50.836;4.330;2022-11-20T07:37:41;7.60;99.90
23120;DHT22;11729;50.836;4.330;2022-11-20T07:40:07;7.60;99.90
23120;DHT22;11729;50.836;4.330;2022-11-20T07:42:33;7.60;99.90
23120;DHT22;11729;50.836;4.330;2022-11-20T07:44:58;7.50;99.90
23120;DHT22;11729;50.836;4.330;2022-11-20T07:47:24;7.60;99.90
23120;DHT22;11729;50.836;4.330;2022-11-20T07:49:50;7.50;99.90
23120;DHT22;11729;50.836;4.330;2022-11-20T07:52:15;7.60;99.90
23120;DHT22;11729;50.836;4.330;2022-11-20T07:54:41;7.50;99.90
23120;DHT22;11729;50.836;4.330;2022-11-20T07:57:07;7.50;99.90
23120;DHT22;11729;50.836;4.330;2022-11-20T07:59:32;7.50;99.90
23120;DHT22;11729;50.836;4.330;2022-11-20T08:01:58;7.50;99.90
23120;DHT22;11729;50.836;4.330;2022-11-20T08:04:23;7.50;99.90
23120;DHT22;11729;50.836;4.330;2022-11-20T08:06:49;7.50;99.90
23120;DHT22;11729;50.836;4.330;2022-11-20T08:09:15;7.50;99.90
23120;DHT22;11729;50.836;4.330;2022-11-20T08:11:40;7.60;99.90
23120;DHT22;11729;50.836;4.330;2022-11-20T08:14:24;7.70;99.90
23120;DHT22;11729;50.836;4.330;2022-11-20T08:16:50;7.80;99.90
23120;DHT22;11729;50.836;4.330;2022-11-20T08:19:18;7.80;99.90
23120;DHT22;11729;50.836;4.330;2022-11-20T08:21:44;7.80;99.90
23120;DHT22;11729;50.836;4.330;2022-11-20T08:24:10;7.90;99.90
23120;DHT22;11729;50.836;4.330;2022-11-20T08:26:37;8.00;99.90
23120;DHT22;11729;50.836;4.330;2022-11-20T08:29:03;7.90;99.90
23120;DHT22;11729;50.836;4.330;2022-11-20T08:31:31;8.00;99.90
23120;DHT22;11729;50.836;4.330;2022-11-20T08:33:57;8.20;99.90
23120;DHT22;11729;50.836;4.330;2022-11-20T08:36:23;8.40;99.90
23120;DHT22;11729;50.836;4.330;2022-11-20T08:38:51;8.40;99.90
23120;DHT22;11729;50.836;4.330;2022-11-20T08:41:17;8.50;99.90
23120;DHT22;11729;50.836;4.330;2022-11-20T08:43:53;8.50;99.90
23120;DHT22;11729;50.836;4.330;2022-11-20T08:46:19;8.50;99.90
23120;DHT22;11729;50.836;4.330;2022-11-20T08:48:45;8.60;99.90
23120;DHT22;11729;50.836;4.330;2022-11-20T08:51:11;8.70;99.90
23120;DHT22;11729;50.836;4.330;2022-11-20T08:53:38;8.50;99.90
23120;DHT22;11729;50.836;4.330;2022-11-20T08:56:04;8.60;99.90
23120;DHT22;11729;50.836;4.330;2022-11-20T08:58:29;8.70;99.90
23120;DHT22;11729;50.836;4.330;2022-11-20T09:00:55;8.80;99.90
23120;DHT22;11729;50.836;4.330;2022-11-20T09:03:20;8.90;99.90
23120;DHT22;11729;50.836;4.330;2022-11-20T09:05:46;9.00;99.90
23120;DHT22;11729;50.836;4.330;2022-11-20T09:08:12;9.00;99.90
23120;DHT22;11729;50.836;4.330;2022-11-20T09:10:37;9.00;99.90
23120;DHT22;11729;50.836;4.330;2022-11-20T09:13:05;9.00;99.90
23120;DHT22;11729;50.836;4.330;2022-11-20T09:15:30;9.00;99.90
23120;DHT22;11729;50.836;4.330;2022-11-20T09:17:58;8.90;99.90
23120;DHT22;11729;50.836;4.330;2022-11-20T09:20:25;9.00;99.90
23120;DHT22;11729;50.836;4.330;2022-11-20T09:22:51;9.10;99.90
23120;DHT22;11729;50.836;4.330;2022-11-20T09:25:17;9.40;99.90
23120;DHT22;11729;50.836;4.330;2022-11-20T09:27:43;9.50;99.90
23120;DHT22;11729;50.836;4.330;2022-11-20T09:30:13;9.50;99.90
23120;DHT22;11729;50.836;4.330;2022-11-20T09:32:39;9.40;99.90
23120;DHT22;11729;50.836;4.330;2022-11-20T09:35:05;9.40;99.90
23120;DHT22;11729;50.836;4.330;2022-11-20T09:37:31;9.40;99.90
23120;DHT22;11729;50.836;4.330;2022-11-20T09:39:57;9.30;99.90
23120;DHT22;11729;50.836;4.330;2022-11-20T09:42:41;9.40;99.90
23120;DHT22;11729;50.836;4.330;2022-11-20T09:45:33;9.50;99.90
23120;DHT22;11729;50.836;4.330;2022-11-20T09:48:36;9.60;99.90
23120;DHT22;11729;50.836;4.330;2022-11-20T09:54:12;9.90;99.90
23120;DHT22;11729;50.836;4.330;2022-11-20T09:56:42;9.90;99.90
23120;DHT22;11729;50.836;4.330;2022-11-20T09:59:17;10.00;99.90
23120;DHT22;11729;50.836;4.330;2022-11-20T10:01:43;10.20;99.90
23120;DHT22;11729;50.836;4.330;2022-11-20T10:04:12;10.10;99.90
23120;DHT22;11729;50.836;4.330;2022-11-20T10:07:12;10.00;99.90
23120;DHT22;11729;50.836;4.330;2022-11-20T10:09:40;10.00;99.90
23120;DHT22;11729;50.836;4.330;2022-11-20T10:15:01;10.30;99.90
23120;DHT22;11729;50.836;4.330;2022-11-20T10:17:55;10.40;99.90
23120;DHT22;11729;50.836;4.330;2022-11-20T10:23:33;10.10;99.90
23120;DHT22;11729;50.836;4.330;2022-11-20T10:31:48;10.40;99.90
23120;DHT22;11729;50.836;4.330;2022-11-20T10:34:21;10.60;99.90
23120;DHT22;11729;50.836;4.330;2022-11-20T10:37:01;10.70;99.90
23120;DHT22;11729;50.836;4.330;2022-11-20T10:39:35;10.80;99.90
23120;DHT22;11729;50.836;4.330;2022-11-20T10:42:02;11.00;99.90
23120;DHT22;11729;50.836;4.330;2022-11-20T10:44:29;11.10;99.90
23120;DHT22;11729;50.836;4.330;2022-11-20T10:47:18;11.20;99.90
23120;DHT22;11729;50.836;4.330;2022-11-20T10:49:46;11.30;99.90
23120;DHT22;11729;50.836;4.330;2022-11-20T10:52:19;11.30;99.90
23120;DHT22;11729;50.836;4.330;2022-11-20T10:58:16;11.20;99.90
23120;DHT22;11729;50.836;4.330;2022-11-20T11:00:44;11.10;99.90
23120;DHT22;11729;50.836;4.330;2022-11-20T11:03:22;11.20;99.90
23120;DHT22;11729;50.836;4.330;2022-11-20T11:05:58;11.20;99.90
23120;DHT22;11729;50.836;4.330;2022-11-20T11:08:28;11.20;99.90
23120;DHT22;11729;50.836;4.330;2022-11-20T11:10:59;10.90;99.90
23120;DHT22;11729;50.836;4.330;2022-11-20T11:13:30;11.00;99.90
23120;DHT22;11729;50.836;4.330;2022-11-20T11:15:57;11.10;99.90
23120;DHT22;11729;50.836;4.330;2022-11-20T11:18:31;11.00;99.90
23120;DHT22;11729;50.836;4.330;2022-11-20T11:21:00;11.00;99.90
23120;DHT22;11729;50.836;4.330;2022-11-20T11:23:32;10.90;99.90
23120;DHT22;11729;50.836;4.330;2022-11-20T11:25:59;10.80;99.90
23120;DHT22;11729;50.836;4.330;2022-11-20T11:28:26;10.90;99.90
23120;DHT22;11729;50.836;4.330;2022-11-20T11:30:53;11.00;99.90
23120;DHT22;11729;50.836;4.330;2022-11-20T11:33:25;11.00;99.90
23120;DHT22;11729;50.836;4.330;2022-11-20T11:35:56;11.00;99.90
23120;DHT22;11729;50.836;4.330;2022-11-20T11:38:40;11.00;99.90
23120;DHT22;11729;50.836;4.330;2022-11-20T11:41:10;10.80;99.90
23120;DHT22;11729;50.836;4.330;2022-11-20T11:43:39;10.70;99.90
23120;DHT22;11729;50.836;4.330;2022-11-20T11:46:30;10.70;99.90
23120;DHT22;11729;50.836;4.330;2022-11-20T11:51:22;10.50;99.90
23120;DHT22;11729;50.836;4.330;2022-11-20T11:53:48;10.40;99.90
23120;DHT22;11729;50.836;4.330;2022-11-20T11:56:14;10.40;99.90
23120;DHT22;11729;50.836;4.330;2022-11-20T11:58:47;10.30;99.90
23120;DHT22;11729;50.836;4.330;2022-11-20T12:01:40;10.10;99.90
23120;DHT22;11729;50.836;4.330;2022-11-20T12:07:06;10.00;99.90
23120;DHT22;11729;50.836;4.330;2022-11-20T12:09:43;10.00;99.90
23120;DHT22;11729;50.836;4.330;2022-11-20T12:12:18;9.80;99.90
23120;DHT22;11729;50.836;4.330;2022-11-20T12:14:48;9.70;99.90
23120;DHT22;11729;50.836;4.330;2022-11-20T12:17:16;9.70;99.90
23120;DHT22;11729;50.836;4.330;2022-11-20T12:19:45;9.60;99.90
23120;DHT22;11729;50.836;4.330;2022-11-20T12:22:35;9.60;99.90
23120;DHT22;11729;50.836;4.330;2022-11-20T12:25:27;9.40;99.90
23120;DHT22;11729;50.836;4.330;2022-11-20T12:28:13;9.40;99.90
23120;DHT22;11729;50.836;4.330;2022-11-20T12:31:12;9.40;99.90
23120;DHT22;11729;50.836;4.330;2022-11-20T12:36:43;9.30;99.90
23120;DHT22;11729;50.836;4.330;2022-11-20T12:44:48;9.20;99.90
23120;DHT22;11729;50.836;4.330;2022-11-20T12:51:05;9.20;99.90
23120;DHT22;11729;50.836;4.330;2022-11-20T12:59:02;9.20;99.90
23120;DHT22;11729;50.836;4.330;2022-11-20T13:02:25;9.30;99.90
23120;DHT22;11729;50.836;4.330;2022-11-20T13:07:35;9.40;99.90
23120;DHT22;11729;50.836;4.330;2022-11-20T13:10:02;9.50;99.90
23120;DHT22;11729;50.836;4.330;2022-11-20T13:12:43;9.50;99.90
23120;DHT22;11729;50.836;4.330;2022-11-20T13:15:40;9.50;99.90
23120;DHT22;11729;50.836;4.330;2022-11-20T13:18:11;9.50;99.90
23120;DHT22;11729;50.836;4.330;2022-11-20T13:20:43;9.30;99.90
23120;DHT22;11729;50.836;4.330;2022-11-20T13:23:09;9.30;99.90
23120;DHT22;11729;50.836;4.330;2022-11-20T13:25:37;9.30;99.90
23120;DHT22;11729;50.836;4.330;2022-11-20T13:30:35;9.30;99.90
23120;DHT22;11729;50.836;4.330;2022-11-20T13:33:36;9.30;99.90
23120;DHT22;11729;50.836;4.330;2022-11-20T13:36:25;9.30;99.90
23120;DHT22;11729;50.836;4.330;2022-11-20T13:38:53;9.10;99.90
23120;DHT22;11729;50.836;4.330;2022-11-20T13:41:34;9.20;99.90
23120;DHT22;11729;50.836;4.330;2022-11-20T13:46:42;9.10;99.90
23120;DHT22;11729;50.836;4.330;2022-11-20T13:49:15;9.20;99.90
23120;DHT22;11729;50.836;4.330;2022-11-20T13:51:48;9.20;99.90
23120;DHT22;11729;50.836;4.330;2022-11-20T13:56:59;9.20;99.90
23120;DHT22;11729;50.836;4.330;2022-11-20T14:02:20;9.20;99.90
23120;DHT22;11729;50.836;4.330;2022-11-20T14:04:49;9.20;99.90
23120;DHT22;11729;50.836;4.330;2022-11-20T14:07:19;9.30;99.90
23120;DHT22;11729;50.836;4.330;2022-11-20T14:09:54;9.30;99.90
23120;DHT22;11729;50.836;4.330;2022-11-20T14:12:29;9.30;99.90
23120;DHT22;11729;50.836;4.330;2022-11-20T14:14:55;9.40;99.90
23120;DHT22;11729;50.836;4.330;2022-11-20T14:19:55;9.20;99.90
23120;DHT22;11729;50.836;4.330;2022-11-20T14:22:25;9.00;99.90
23120;DHT22;11729;50.836;4.330;2022-11-20T14:25:05;9.10;99.90
23120;DHT22;11729;50.836;4.330;2022-11-20T14:27:43;9.20;99.90
23120;DHT22;11729;50.836;4.330;2022-11-20T14:30:15;9.30;99.90
23120;DHT22;11729;50.836;4.330;2022-11-20T14:32:42;9.40;99.90
23120;DHT22;11729;50.836;4.330;2022-11-20T14:35:13;9.30;99.90
23120;DHT22;11729;50.836;4.330;2022-11-20T14:37:41;9.40;99.90
23120;DHT22;11729;50.836;4.330;2022-11-20T14:40:31;9.40;99.90
23120;DHT22;11729;50.836;4.330;2022-11-20T14:42:58;9.30;99.90
23120;DHT22;11729;50.836;4.330;2022-11-20T14:45:25;9.40;99.90
23120;DHT22;11729;50.836;4.330;2022-11-20T14:47:56;9.40;99.90
23120;DHT22;11729;50.836;4.330;2022-11-20T14:50:23;9.40;99.90
23120;DHT22;11729;50.836;4.330;2022-11-20T14:53:00;9.40;99.90
23120;DHT22;11729;50.836;4.330;2022-11-20T14:55:35;9.40;99.90
23120;DHT22;11729;50.836;4.330;2022-11-20T14:58:27;9.40;99.90
23120;DHT22;11729;50.836;4.330;2022-11-20T15:00:58;9.40;99.90
23120;DHT22;11729;50.836;4.330;2022-11-20T15:03:34;9.40;99.90
23120;DHT22;11729;50.836;4.330;2022-11-20T15:06:00;9.40;99.90
23120;DHT22;11729;50.836;4.330;2022-11-20T15:08:26;9.30;99.90
23120;DHT22;11729;50.836;4.330;2022-11-20T15:10:52;9.30;99.90
23120;DHT22;11729;50.836;4.330;2022-11-20T15:13:33;9.40;99.90
23120;DHT22;11729;50.836;4.330;2022-11-20T15:16:04;9.40;99.90
23120;DHT22;11729;50.836;4.330;2022-11-20T15:18:39;9.50;99.90
23120;DHT22;11729;50.836;4.330;2022-11-20T15:21:16;9.50;99.90
23120;DHT22;11729;50.836;4.330;2022-11-20T15:23:43;9.50;99.90
23120;DHT22;11729;50.836;4.330;2022-11-20T15:26:10;9.50;99.90
23120;DHT22;11729;50.836;4.330;2022-11-20T15:28:39;9.50;99.90
23120;DHT22;11729;50.836;4.330;2022-11-20T15:31:06;9.70;99.90
23120;DHT22;11729;50.836;4.330;2022-11-20T15:33:33;9.60;99.90
23120;DHT22;11729;50.836;4.330;2022-11-20T15:35:59;9.70;99.90
23120;DHT22;11729;50.836;4.330;2022-11-20T15:38:25;9.80;99.90
23120;DHT22;11729;50.836;4.330;2022-11-20T15:40:51;9.80;99.90
23120;DHT22;11729;50.836;4.330;2022-11-20T15:43:17;9.80;99.90
23120;DHT22;11729;50.836;4.330;2022-11-20T15:45:55;9.80;99.90
23120;DHT22;11729;50.836;4.330;2022-11-20T15:48:25;9.80;99.90
23120;DHT22;11729;50.836;4.330;2022-11-20T15:53:52;9.60;99.90
23120;DHT22;11729;50.836;4.330;2022-11-20T15:56:18;9.70;99.90
23120;DHT22;11729;50.836;4.330;2022-11-20T15:58:43;9.70;99.90
23120;DHT22;11729;50.836;4.330;2022-11-20T16:01:14;9.70;99.90
23120;DHT22;11729;50.836;4.330;2022-11-20T16:03:41;9.70;99.90
23120;DHT22;11729;50.836;4.330;2022-11-20T16:06:06;9.70;99.90
23120;DHT22;11729;50.836;4.330;2022-11-20T16:08:32;9.70;99.90
23120;DHT22;11729;50.836;4.330;2022-11-20T16:10:58;9.80;99.90
23120;DHT22;11729;50.836;4.330;2022-11-20T16:13:23;9.90;99.90
23120;DHT22;11729;50.836;4.330;2022-11-20T16:16:17;10.00;99.90
23120;DHT22;11729;50.836;4.330;2022-11-20T16:18:44;10.00;99.90
23120;DHT22;11729;50.836;4.330;2022-11-20T16:21:14;9.90;99.90
23120;DHT22;11729;50.836;4.330;2022-11-20T16:23:40;9.90;99.90
23120;DHT22;11729;50.836;4.330;2022-11-20T16:26:10;9.80;99.90
23120;DHT22;11729;50.836;4.330;2022-11-20T16:28:37;9.80;99.90
23120;DHT22;11729;50.836;4.330;2022-11-20T16:31:15;9.80;99.90
23120;DHT22;11729;50.836;4.330;2022-11-20T16:33:41;9.60;99.90
23120;DHT22;11729;50.836;4.330;2022-11-20T16:36:12;9.40;99.90
23120;DHT22;11729;50.836;4.330;2022-11-20T16:38:38;9.40;99.90
23120;DHT22;11729;50.836;4.330;2022-11-20T16:41:04;9.40;99.90
23120;DHT22;11729;50.836;4.330;2022-11-20T16:43:30;9.50;99.90
23120;DHT22;11729;50.836;4.330;2022-11-20T16:45:55;9.50;99.90
23120;DHT22;11729;50.836;4.330;2022-11-20T16:48:21;9.60;99.90
23120;DHT22;11729;50.836;4.330;2022-11-20T16:50:51;9.60;99.90
23120;DHT22;11729;50.836;4.330;2022-11-20T16:53:19;9.60;99.90
23120;DHT22;11729;50.836;4.330;2022-11-20T16:55:45;9.50;99.90
23120;DHT22;11729;50.836;4.330;2022-11-20T16:58:13;9.60;99.90
23120;DHT22;11729;50.836;4.330;2022-11-20T17:00:40;9.60;99.90